Berden, United Kingdom
Current Conditions -  °F | °C
As of 12:20 PM on Tuesday 27 Jan 2015 (Local Time) from EGSS Reporting Station
Few Clouds Few Clouds  
Wind Chill: 41°   Ceiling: Unl
Heat Index: 46°   Visibility: 6mi
Dew Point: 39°   Wind: 10mph
Humidity: 76%   Direction: 310°NW
Pressure: 30.3"   Gusts: NA
Location:  51.94°N, 0.15°E
Report Text: EGSS 271220Z 31009KT 9999 FEW015 08/04 Q1026
Loading
Personal Weather Stations






























Interactive Weather Map New forecast layout! Learn more

10-Day Weather Forecast

Advertisements
Track Severe Weather on mobile